Time;durP1;ratioP1;P1;durP2;ratioP2;P2;SDS_P1;SDS_P2;PMS_P1;PMS_P2;Temp;Humidity;BMP_temperature;BMP_pressure;BME280_temperature;BME280_humidity;BME280_pressure;Samples;Min_cycle;Max_cycle;Signal;HPM_P1;HPM_P2
2023/12/22 00:01:27;;;;;;;13.07;3.80;;;11.10;99.90;;;;;;5114290;28;20179;-73
2023/12/22 00:03:53;;;;;;;10.93;3.27;;;10.90;99.90;;;;;;5114411;28;20171;-72
2023/12/22 00:06:19;;;;;;;13.97;4.00;;;10.80;99.90;;;;;;5114636;28;20271;-73
2023/12/22 00:08:44;;;;;;;15.47;3.60;;;10.70;99.90;;;;;;5095777;28;20175;-72
2023/12/22 00:11:10;;;;;;;16.60;3.50;;;10.70;99.90;;;;;;5114396;28;20167;-72
2023/12/22 00:13:35;;;;;;;15.87;3.33;;;10.70;99.90;;;;;;5114022;28;20256;-72
2023/12/22 00:16:01;;;;;;;13.53;3.20;;;10.70;99.90;;;;;;5114264;28;20205;-72
2023/12/22 00:18:27;;;;;;;12.23;2.63;;;10.80;99.90;;;;;;5114350;28;20182;-72
2023/12/22 00:20:53;;;;;;;8.57;2.93;;;10.80;99.90;;;;;;5114267;28;20687;-72
2023/12/22 00:23:18;;;;;;;11.17;3.23;;;10.80;99.90;;;;;;5113813;28;20163;-72
2023/12/22 00:25:44;;;;;;;11.60;2.87;;;10.80;99.90;;;;;;5095910;28;20299;-73
2023/12/22 00:28:10;;;;;;;12.87;2.83;;;10.80;99.90;;;;;;5113741;28;20271;-73
2023/12/22 00:30:35;;;;;;;10.57;3.10;;;10.80;99.90;;;;;;5114071;28;20179;-72
2023/12/22 00:33:01;;;;;;;8.00;2.70;;;10.70;99.90;;;;;;5113993;28;20179;-73
2023/12/22 00:35:26;;;;;;;8.43;2.50;;;10.60;99.90;;;;;;5113862;28;20238;-73
2023/12/22 00:37:52;;;;;;;7.93;2.30;;;10.50;99.90;;;;;;5113827;28;20174;-73
2023/12/22 00:40:18;;;;;;;5.97;2.40;;;10.40;99.90;;;;;;5114113;28;20763;-72
2023/12/22 00:42:44;;;;;;;11.33;2.60;;;10.20;99.90;;;;;;5113892;28;20246;-72
2023/12/22 00:45:10;;;;;;;10.30;3.00;;;10.10;99.90;;;;;;5095599;28;20210;-72
2023/12/22 00:47:36;;;;;;;17.80;3.37;;;10.00;99.90;;;;;;5113925;28;20197;-73
2023/12/22 00:50:02;;;;;;;10.80;3.40;;;9.90;99.90;;;;;;5095411;28;20199;-73
2023/12/22 00:52:28;;;;;;;13.33;3.70;;;9.90;99.90;;;;;;5113318;28;20592;-72
2023/12/22 00:54:53;;;;;;;14.00;3.57;;;9.90;99.90;;;;;;5113832;28;20234;-72
2023/12/22 00:57:19;;;;;;;20.90;3.87;;;9.90;99.90;;;;;;5113496;28;20174;-73
2023/12/22 00:59:47;;;;;;;12.50;3.30;;;9.80;99.90;;;;;;5113575;28;20179;-72
2023/12/22 01:02:16;;;;;;;12.77;3.60;;;9.90;99.90;;;;;;5113739;28;20250;-72
2023/12/22 01:04:42;;;;;;;17.77;3.97;;;9.80;99.90;;;;;;5113845;28;20219;-72
2023/12/22 01:07:08;;;;;;;15.10;3.43;;;9.80;99.90;;;;;;5113253;28;20262;-71
2023/12/22 01:09:34;;;;;;;14.40;3.40;;;9.70;99.90;;;;;;5113650;28;20174;-72
2023/12/22 01:12:02;;;;;;;16.40;3.93;;;9.80;99.90;;;;;;5113500;28;20747;-72
2023/12/22 01:14:28;;;;;;;20.53;4.10;;;9.70;99.90;;;;;;5113325;28;20299;-71
2023/12/22 01:16:54;;;;;;;14.97;3.77;;;9.80;99.90;;;;;;5113712;28;20221;-71
2023/12/22 01:19:20;;;;;;;17.73;4.17;;;9.90;99.90;;;;;;5113358;28;20167;-72
2023/12/22 01:21:46;;;;;;;19.37;3.83;;;9.90;99.90;;;;;;5113138;28;20167;-71
2023/12/22 01:24:11;;;;;;;15.73;4.53;;;9.90;99.90;;;;;;5113510;28;20217;-71
2023/12/22 01:26:37;;;;;;;16.80;4.10;;;10.00;99.90;;;;;;5117093;28;20166;-71
2023/12/22 01:29:02;;;;;;;17.23;4.30;;;10.00;99.90;;;;;;5117549;28;20254;-72
2023/12/22 01:31:28;;;;;;;16.30;3.97;;;10.00;99.90;;;;;;5117493;28;20181;-72
2023/12/22 01:33:54;;;;;;;19.10;4.23;;;10.10;99.90;;;;;;5117211;28;20619;-71
2023/12/22 01:36:19;;;;;;;15.37;3.97;;;10.10;99.90;;;;;;5117124;28;20197;-72
2023/12/22 01:38:45;;;;;;;18.33;3.77;;;10.10;99.90;;;;;;5117272;28;20226;-71
2023/12/22 01:41:10;;;;;;;14.33;3.87;;;10.20;99.90;;;;;;5117126;28;20657;-71
2023/12/22 01:43:36;;;;;;;16.27;4.07;;;10.20;99.90;;;;;;5117297;28;20175;-72
2023/12/22 01:46:02;;;;;;;15.13;3.77;;;10.20;99.90;;;;;;5117313;28;20168;-71
2023/12/22 01:48:28;;;;;;;13.67;4.00;;;10.30;99.90;;;;;;5117241;28;20167;-73
2023/12/22 01:50:56;;;;;;;23.17;4.63;;;10.40;99.90;;;;;;5116927;28;20222;-71
2023/12/22 01:53:23;;;;;;;17.37;3.90;;;10.30;99.90;;;;;;5098751;28;20175;-72
2023/12/22 01:55:51;;;;;;;16.67;3.90;;;10.30;99.90;;;;;;5117064;28;20207;-72
2023/12/22 01:58:18;;;;;;;19.93;4.13;;;10.40;99.90;;;;;;5116972;28;20657;-73
2023/12/22 02:00:44;;;;;;;20.60;4.13;;;10.40;99.90;;;;;;5117093;28;20258;-71
2023/12/22 02:03:10;;;;;;;23.43;4.77;;;10.40;99.90;;;;;;5098676;28;20203;-72
2023/12/22 02:05:35;;;;;;;19.97;4.10;;;10.40;99.90;;;;;;5116462;28;20175;-72
2023/12/22 02:08:01;;;;;;;16.00;4.70;;;10.30;99.90;;;;;;5116767;28;20248;-71
2023/12/22 02:10:26;;;;;;;20.10;4.33;;;10.30;99.90;;;;;;5116715;28;20210;-72
2023/12/22 02:12:52;;;;;;;17.97;4.43;;;10.30;99.90;;;;;;5116696;28;20209;-72
2023/12/22 02:15:18;;;;;;;13.17;4.20;;;10.40;99.90;;;;;;5116535;28;20207;-72
2023/12/22 02:17:51;;;;;;;18.50;4.13;;;10.40;99.90;;;;;;5116571;28;20505;-72
2023/12/22 02:20:17;;;;;;;17.67;4.30;;;10.40;99.90;;;;;;5116681;28;20198;-72
2023/12/22 02:22:43;;;;;;;15.13;4.63;;;10.30;99.90;;;;;;5116337;28;20171;-71
2023/12/22 02:25:09;;;;;;;21.13;4.40;;;10.30;99.90;;;;;;5116444;28;20179;-71
2023/12/22 02:27:49;;;;;;;19.80;4.17;;;10.30;99.90;;;;;;5116339;28;20283;-72
2023/12/22 02:30:24;;;;;;;23.23;4.03;;;10.20;99.90;;;;;;5098178;28;20167;-71
2023/12/22 02:32:54;;;;;;;17.93;4.07;;;10.20;99.90;;;;;;5115991;28;20267;-72
2023/12/22 02:35:23;;;;;;;16.60;4.13;;;10.10;99.90;;;;;;5116034;28;20215;-72
2023/12/22 02:37:50;;;;;;;17.10;4.00;;;10.20;99.90;;;;;;5115045;28;20253;-71
2023/12/22 02:40:17;;;;;;;15.97;3.80;;;10.20;99.90;;;;;;5116367;28;20179;-72
2023/12/22 02:42:43;;;;;;;12.73;3.77;;;10.20;99.90;;;;;;5116106;28;20163;-72
2023/12/22 02:45:18;;;;;;;10.00;3.30;;;10.30;99.90;;;;;;5116089;28;20177;-72
2023/12/22 02:47:44;;;;;;;12.87;3.00;;;10.20;99.90;;;;;;5115612;28;20245;-72
2023/12/22 02:50:11;;;;;;;7.90;2.60;;;10.30;99.90;;;;;;5115852;28;20175;-72
2023/12/22 02:52:36;;;;;;;9.27;2.87;;;10.30;99.90;;;;;;5116121;28;20168;-72
2023/12/22 02:55:03;;;;;;;6.83;2.40;;;10.30;99.90;;;;;;5115787;28;20561;-72
2023/12/22 02:57:28;;;;;;;14.13;2.70;;;10.30;99.90;;;;;;5115827;28;20641;-72
2023/12/22 02:59:54;;;;;;;7.40;2.20;;;10.30;99.90;;;;;;5115773;28;20175;-71
2023/12/22 03:02:20;;;;;;;10.17;2.80;;;10.20;99.90;;;;;;5115229;28;20246;-72
2023/12/22 03:04:48;;;;;;;10.80;2.73;;;10.20;99.90;;;;;;5115610;28;20232;-72
2023/12/22 03:07:14;;;;;;;9.47;2.07;;;10.20;99.90;;;;;;5115678;28;20221;-73
2023/12/22 03:09:40;;;;;;;9.43;2.50;;;10.20;99.90;;;;;;5097186;28;20535;-72
2023/12/22 03:12:07;;;;;;;9.27;2.40;;;10.20;99.90;;;;;;5115644;28;20614;-71
2023/12/22 03:14:33;;;;;;;9.13;2.73;;;10.10;99.90;;;;;;5115359;28;20206;-72
2023/12/22 03:17:03;;;;;;;9.37;3.00;;;10.20;99.90;;;;;;5115092;28;20652;-72
2023/12/22 03:19:29;;;;;;;12.63;3.13;;;10.20;99.90;;;;;;5097119;28;20232;-72
2023/12/22 03:21:56;;;;;;;13.20;3.00;;;10.10;99.90;;;;;;5115364;28;20547;-71
2023/12/22 03:24:22;;;;;;;17.30;3.37;;;10.10;99.90;;;;;;5115342;28;20631;-72
2023/12/22 03:26:51;;;;;;;11.27;2.90;;;10.00;99.90;;;;;;5114880;28;20634;-72
2023/12/22 03:29:17;;;;;;;16.40;3.53;;;10.00;99.90;;;;;;5115092;28;20175;-73
2023/12/22 03:31:43;;;;;;;13.27;3.80;;;10.00;99.90;;;;;;5114760;28;20163;-72
2023/12/22 03:34:09;;;;;;;14.27;3.67;;;10.00;99.90;;;;;;5115071;28;20542;-72
2023/12/22 03:36:34;;;;;;;17.10;4.07;;;9.90;99.90;;;;;;5115000;28;20217;-71
2023/12/22 03:39:00;;;;;;;19.70;4.43;;;9.90;99.90;;;;;;5114905;28;20170;-71
2023/12/22 03:41:26;;;;;;;18.30;3.93;;;9.80;99.90;;;;;;5114727;28;20569;-72
2023/12/22 03:43:51;;;;;;;18.30;4.10;;;9.80;99.90;;;;;;5114801;28;20174;-71
2023/12/22 03:46:18;;;;;;;21.67;4.13;;;9.80;99.90;;;;;;5114377;28;20175;-71
2023/12/22 03:48:43;;;;;;;17.57;4.20;;;9.80;99.90;;;;;;5114525;28;20626;-71
2023/12/22 03:51:11;;;;;;;17.13;4.00;;;9.90;99.90;;;;;;5114665;28;20171;-72
2023/12/22 03:53:37;;;;;;;14.70;3.47;;;9.90;99.90;;;;;;5114838;28;20182;-72
2023/12/22 03:56:03;;;;;;;14.57;3.47;;;9.80;99.90;;;;;;5114651;28;20579;-72
2023/12/22 03:58:30;;;;;;;8.50;2.50;;;9.80;99.90;;;;;;5114584;28;20258;-72
2023/12/22 04:00:56;;;;;;;11.37;3.20;;;9.90;99.90;;;;;;5114399;28;20202;-72
2023/12/22 04:03:21;;;;;;;11.13;3.20;;;9.80;99.90;;;;;;5114287;28;20175;-72
2023/12/22 04:05:47;;;;;;;15.00;3.33;;;9.80;99.90;;;;;;5114658;28;20176;-73
2023/12/22 04:08:12;;;;;;;13.27;3.37;;;9.80;99.90;;;;;;5114502;28;20167;-72
2023/12/22 04:10:38;;;;;;;11.93;3.23;;;9.80;99.90;;;;;;5114576;28;20541;-71
2023/12/22 04:13:03;;;;;;;9.50;2.80;;;9.70;99.90;;;;;;5114535;28;20201;-72
2023/12/22 04:15:29;;;;;;;11.57;3.40;;;9.70;99.90;;;;;;5113624;28;20232;-72
2023/12/22 04:17:54;;;;;;;11.07;3.33;;;9.70;99.90;;;;;;5113860;28;20219;-71
2023/12/22 04:20:20;;;;;;;12.70;3.63;;;9.60;99.90;;;;;;5113798;28;20168;-72
2023/12/22 04:22:46;;;;;;;13.70;3.80;;;9.60;99.90;;;;;;5113930;28;20218;-72
2023/12/22 04:25:11;;;;;;;16.40;3.83;;;9.40;99.90;;;;;;5113943;28;20179;-71
2023/12/22 04:27:37;;;;;;;17.80;3.97;;;9.20;99.90;;;;;;5113539;28;20215;-71
2023/12/22 04:30:03;;;;;;;15.83;4.03;;;9.20;99.90;;;;;;5095339;28;20179;-71
2023/12/22 04:32:28;;;;;;;17.53;4.50;;;9.20;99.90;;;;;;5113883;28;20175;-72
2023/12/22 04:34:54;;;;;;;16.80;4.80;;;9.10;99.90;;;;;;5095374;28;20214;-72
2023/12/22 04:37:19;;;;;;;19.60;4.70;;;9.10;99.90;;;;;;5113626;28;20199;-71
2023/12/22 04:39:45;;;;;;;20.63;5.07;;;9.10;99.90;;;;;;5095629;28;20626;-72
2023/12/22 04:42:10;;;;;;;16.13;4.70;;;9.00;99.90;;;;;;5113801;28;20280;-72
2023/12/22 04:44:36;;;;;;;22.87;5.17;;;8.90;99.90;;;;;;5113182;28;20197;-71
2023/12/22 04:47:02;;;;;;;23.33;4.63;;;8.80;99.90;;;;;;5113410;28;20167;-71
2023/12/22 04:49:27;;;;;;;19.20;4.77;;;8.80;99.90;;;;;;5113772;28;20175;-71
2023/12/22 04:51:53;;;;;;;21.73;4.83;;;8.80;99.90;;;;;;5113107;28;20176;-71
2023/12/22 04:54:18;;;;;;;21.17;4.80;;;8.80;99.90;;;;;;5113354;28;20305;-71
2023/12/22 04:56:44;;;;;;;24.27;4.40;;;8.80;99.90;;;;;;5113420;28;20174;-71
2023/12/22 04:59:09;;;;;;;22.73;4.30;;;8.90;99.90;;;;;;5112357;28;20638;-71
2023/12/22 05:01:35;;;;;;;23.47;5.33;;;8.90;99.90;;;;;;5113304;28;20719;-72
2023/12/22 05:04:01;;;;;;;22.87;5.33;;;8.90;99.90;;;;;;5113344;28;20675;-72
2023/12/22 05:06:28;;;;;;;23.10;5.03;;;9.00;99.90;;;;;;5113052;28;20167;-72
2023/12/22 05:08:54;;;;;;;26.00;5.10;;;9.00;99.90;;;;;;5113326;28;20167;-72
2023/12/22 05:11:20;;;;;;;26.90;5.43;;;9.10;99.90;;;;;;5112691;28;20163;-71
2023/12/22 05:13:45;;;;;;;24.07;5.47;;;9.10;99.90;;;;;;5112545;28;20626;-71
2023/12/22 05:16:11;;;;;;;20.87;4.90;;;9.10;99.90;;;;;;5113432;28;20178;-73
2023/12/22 05:18:36;;;;;;;25.97;5.33;;;9.30;99.90;;;;;;5094760;28;20239;-71
2023/12/22 05:21:03;;;;;;;26.33;6.03;;;9.30;99.90;;;;;;5112935;28;20166;-72
2023/12/22 05:23:29;;;;;;;21.50;5.40;;;9.30;99.90;;;;;;5112831;28;20168;-71
2023/12/22 05:25:54;;;;;;;26.17;5.57;;;9.40;99.90;;;;;;5113158;28;20174;-72
2023/12/22 05:28:20;;;;;;;36.37;5.80;;;9.40;99.90;;;;;;5112182;28;20424;-72
2023/12/22 05:30:47;;;;;;;26.30;5.67;;;9.50;99.90;;;;;;5112847;28;20186;-73
2023/12/22 05:33:12;;;;;;;25.63;5.93;;;9.60;99.90;;;;;;5112940;28;20163;-73
2023/12/22 05:35:38;;;;;;;24.33;5.90;;;9.60;99.90;;;;;;5113087;28;20221;-72
2023/12/22 05:38:03;;;;;;;21.13;5.53;;;9.70;99.90;;;;;;5112535;28;20175;-73
2023/12/22 05:40:31;;;;;;;25.37;5.77;;;9.80;99.90;;;;;;5113116;28;20175;-72
2023/12/22 05:42:56;;;;;;;26.20;5.90;;;9.80;99.90;;;;;;5112448;28;20167;-72
2023/12/22 05:45:24;;;;;;;22.87;5.60;;;9.90;99.90;;;;;;5112336;28;20189;-72
2023/12/22 05:47:50;;;;;;;32.67;5.70;;;9.90;99.90;;;;;;5112372;28;20163;-72
2023/12/22 05:50:16;;;;;;;22.97;5.50;;;9.90;99.90;;;;;;5112404;28;20538;-72
2023/12/22 05:52:43;;;;;;;25.70;5.03;;;10.00;99.90;;;;;;5112186;28;20167;-73
2023/12/22 05:55:09;;;;;;;27.40;5.73;;;10.00;99.90;;;;;;5112182;28;20205;-72
2023/12/22 05:57:35;;;;;;;22.60;4.90;;;10.00;99.90;;;;;;5094154;28;20172;-73
2023/12/22 06:00:00;;;;;;;22.03;5.17;;;10.00;99.90;;;;;;5112201;28;20182;-73
2023/12/22 06:02:26;;;;;;;20.10;5.17;;;10.10;99.90;;;;;;5112303;28;20174;-72
2023/12/22 06:04:51;;;;;;;20.47;5.00;;;10.10;99.90;;;;;;5112389;28;20635;-73
2023/12/22 06:07:19;;;;;;;19.47;4.80;;;10.10;99.90;;;;;;5112252;28;20168;-72
2023/12/22 06:09:44;;;;;;;25.60;5.10;;;10.10;99.90;;;;;;5112027;28;20171;-73
2023/12/22 06:12:10;;;;;;;17.10;4.93;;;10.10;99.90;;;;;;5114804;28;20172;-73
2023/12/22 06:14:36;;;;;;;19.23;4.83;;;10.10;99.90;;;;;;5097541;28;20215;-72
2023/12/22 06:17:02;;;;;;;18.83;4.57;;;10.10;99.90;;;;;;5115679;28;20614;-72
2023/12/22 06:19:30;;;;;;;17.23;5.10;;;10.10;99.90;;;;;;5115655;28;20593;-71
2023/12/22 06:21:57;;;;;;;23.17;4.70;;;10.10;99.90;;;;;;5115628;28;20624;-72
2023/12/22 06:24:23;;;;;;;22.27;4.77;;;10.10;99.90;;;;;;5095897;28;20175;-72
2023/12/22 06:26:48;;;;;;;22.07;4.83;;;10.10;99.90;;;;;;5115305;28;20541;-72
2023/12/22 06:29:14;;;;;;;21.07;4.50;;;10.10;99.90;;;;;;5115569;28;20175;-72
2023/12/22 06:31:39;;;;;;;16.87;4.03;;;10.10;99.90;;;;;;5115654;28;20240;-73
2023/12/22 06:34:05;;;;;;;16.70;4.23;;;10.10;99.90;;;;;;5115350;28;20195;-71
2023/12/22 06:36:31;;;;;;;14.73;4.37;;;10.00;99.90;;;;;;5115697;28;20175;-73
2023/12/22 06:38:57;;;;;;;18.50;4.30;;;10.00;99.90;;;;;;5096843;28;20175;-72
2023/12/22 06:41:30;;;;;;;18.17;3.70;;;10.10;99.90;;;;;;5114617;28;20266;-71
2023/12/22 06:43:59;;;;;;;15.37;3.83;;;10.10;99.90;;;;;;5114798;28;20595;-72
2023/12/22 06:46:31;;;;;;;11.60;3.40;;;10.20;99.90;;;;;;5114663;28;20216;-72
2023/12/22 06:48:57;;;;;;;12.47;3.17;;;10.20;99.90;;;;;;5114628;28;20177;-72
2023/12/22 06:51:28;;;;;;;10.73;2.73;;;10.10;99.90;;;;;;5114364;28;20175;-72
2023/12/22 06:53:55;;;;;;;10.50;3.07;;;10.00;99.90;;;;;;5114216;28;20183;-72
2023/12/22 06:56:23;;;;;;;10.90;3.40;;;10.00;99.90;;;;;;5114950;28;20649;-71
2023/12/22 06:58:50;;;;;;;11.70;3.23;;;10.10;99.90;;;;;;5114262;28;20163;-72
2023/12/22 07:01:30;;;;;;;14.07;2.90;;;10.10;99.90;;;;;;5114541;28;20629;-73
2023/12/22 07:03:55;;;;;;;11.33;2.73;;;10.20;99.90;;;;;;5114400;28;20253;-72
2023/12/22 07:06:22;;;;;;;8.43;2.73;;;10.20;99.90;;;;;;5114246;28;20675;-72
2023/12/22 07:09:19;;;;;;;7.70;2.60;;;10.20;99.90;;;;;;5113820;28;20258;-73
2023/12/22 07:11:55;;;;;;;10.07;2.40;;;10.10;99.90;;;;;;5114334;28;20342;-72
2023/12/22 07:14:21;;;;;;;6.67;2.60;;;10.10;99.90;;;;;;5113628;28;20206;-72
2023/12/22 07:16:47;;;;;;;11.67;2.83;;;10.10;99.90;;;;;;5114061;28;20171;-72
2023/12/22 07:19:13;;;;;;;6.67;2.50;;;10.10;99.90;;;;;;5114236;28;20208;-71
2023/12/22 07:21:39;;;;;;;6.50;2.40;;;10.10;99.90;;;;;;5114193;28;20163;-72
2023/12/22 07:24:05;;;;;;;8.63;2.20;;;10.20;99.90;;;;;;5112895;28;20219;-72
2023/12/22 07:26:31;;;;;;;10.60;2.90;;;10.10;99.90;;;;;;5114563;28;20501;-71
2023/12/22 07:28:57;;;;;;;8.77;2.73;;;10.10;99.90;;;;;;5113681;28;20233;-72
2023/12/22 07:31:23;;;;;;;9.37;2.30;;;10.10;99.90;;;;;;5114023;28;20201;-72
2023/12/22 07:33:48;;;;;;;8.67;2.30;;;10.20;99.90;;;;;;5113692;28;20195;-71
2023/12/22 07:36:14;;;;;;;8.50;2.47;;;10.30;99.90;;;;;;5114072;28;20175;-72
2023/12/22 07:38:41;;;;;;;7.37;2.07;;;10.30;99.90;;;;;;5113172;28;20290;-72
2023/12/22 07:41:07;;;;;;;8.07;2.40;;;10.30;99.90;;;;;;5113694;28;20728;-71
2023/12/22 07:43:33;;;;;;;9.20;2.53;;;10.40;99.90;;;;;;5113659;28;20178;-72
2023/12/22 07:45:58;;;;;;;8.80;2.60;;;10.40;99.90;;;;;;5113949;28;20171;-72
2023/12/22 07:48:24;;;;;;;6.13;2.23;;;10.40;99.90;;;;;;5114145;28;20630;-72
2023/12/22 07:50:50;;;;;;;6.17;2.20;;;10.30;99.90;;;;;;5095061;28;20175;-72
2023/12/22 07:53:16;;;;;;;4.90;2.40;;;10.30;99.90;;;;;;5113494;28;20184;-72
2023/12/22 07:55:42;;;;;;;5.43;2.10;;;10.20;99.90;;;;;;5112890;28;20634;-73
2023/12/22 07:58:08;;;;;;;4.43;1.83;;;10.20;99.90;;;;;;5112737;28;20171;-72
2023/12/22 08:00:34;;;;;;;6.43;1.90;;;10.20;99.90;;;;;;5113580;28;20231;-72
2023/12/22 08:03:00;;;;;;;7.43;1.90;;;10.30;99.90;;;;;;5112965;28;20245;-73
2023/12/22 08:05:26;;;;;;;6.20;2.53;;;10.40;99.90;;;;;;5112514;28;20194;-71
2023/12/22 08:07:51;;;;;;;2.73;1.53;;;10.40;99.90;;;;;;5112715;28;20622;-71
2023/12/22 08:10:17;;;;;;;2.97;1.50;;;10.40;99.90;;;;;;5094868;28;20183;-73
2023/12/22 08:12:43;;;;;;;5.17;1.67;;;10.40;99.90;;;;;;5112670;28;20198;-72
2023/12/22 08:15:12;;;;;;;3.60;1.70;;;10.40;99.90;;;;;;5113029;28;20257;-71
2023/12/22 08:17:45;;;;;;;1.83;1.73;;;10.40;99.90;;;;;;5112303;28;20175;-71
2023/12/22 08:20:15;;;;;;;6.93;2.17;;;10.40;99.90;;;;;;5112152;28;20174;-73
2023/12/22 08:22:41;;;;;;;2.77;2.20;;;10.40;99.90;;;;;;5111524;28;20175;-72
2023/12/22 08:25:07;;;;;;;5.13;2.30;;;10.40;99.90;;;;;;5111600;28;20175;-71
2023/12/22 08:27:33;;;;;;;6.73;3.00;;;10.40;99.90;;;;;;5111506;28;20219;-71
2023/12/22 08:29:58;;;;;;;2.73;2.10;;;10.40;99.90;;;;;;5113024;28;20178;-71
2023/12/22 08:32:24;;;;;;;4.20;2.40;;;10.30;99.90;;;;;;5113116;28;20168;-71
2023/12/22 08:34:49;;;;;;;3.80;2.40;;;10.20;99.90;;;;;;5111522;28;20198;-72
2023/12/22 08:37:15;;;;;;;2.90;2.70;;;10.20;99.90;;;;;;5113148;28;20163;-72
2023/12/22 08:39:40;;;;;;;4.23;2.70;;;10.20;99.90;;;;;;5112699;28;20223;-71
2023/12/22 08:42:06;;;;;;;4.40;3.17;;;10.20;99.90;;;;;;5112762;28;20168;-72
2023/12/22 08:44:32;;;;;;;5.33;3.30;;;10.20;99.90;;;;;;5113129;28;20171;-71
2023/12/22 08:46:57;;;;;;;5.03;3.03;;;10.30;99.90;;;;;;5112989;28;20167;-72
2023/12/22 08:49:23;;;;;;;4.90;3.60;;;10.30;99.90;;;;;;5112960;28;20163;-72
2023/12/22 08:51:48;;;;;;;5.17;3.27;;;10.30;99.90;;;;;;5094528;28;20171;-71
2023/12/22 08:54:15;;;;;;;6.23;3.80;;;10.30;99.90;;;;;;5113056;28;20603;-72
2023/12/22 08:56:40;;;;;;;5.07;3.83;;;10.30;99.90;;;;;;5113007;28;20177;-71
2023/12/22 08:59:08;;;;;;;7.60;4.23;;;10.40;99.90;;;;;;5113302;28;20544;-71
2023/12/22 09:01:34;;;;;;;9.30;4.20;;;10.40;99.90;;;;;;5112723;28;20178;-71
2023/12/22 09:04:01;;;;;;;7.27;4.43;;;10.50;99.90;;;;;;5112409;28;20642;-73
2023/12/22 09:06:27;;;;;;;9.43;3.77;;;10.40;99.90;;;;;;5112763;28;20232;-72
2023/12/22 09:08:52;;;;;;;7.03;3.80;;;10.50;99.90;;;;;;5113116;28;20606;-71
2023/12/22 09:11:20;;;;;;;5.63;3.13;;;10.60;99.90;;;;;;5112241;28;20618;-71
2023/12/22 09:13:46;;;;;;;5.00;2.90;;;10.60;99.90;;;;;;5112509;28;20210;-73
2023/12/22 09:16:14;;;;;;;5.60;3.30;;;10.60;99.90;;;;;;5112833;28;20207;-71
2023/12/22 09:18:40;;;;;;;8.00;3.30;;;10.60;99.90;;;;;;5112260;28;20304;-72
2023/12/22 09:21:06;;;;;;;6.70;2.90;;;10.60;99.90;;;;;;5112423;28;20598;-71
2023/12/22 09:23:32;;;;;;;4.93;2.73;;;10.60;99.90;;;;;;5112576;28;20179;-72
2023/12/22 09:25:58;;;;;;;5.57;2.90;;;10.70;99.90;;;;;;5112448;28;20191;-73
2023/12/22 09:28:24;;;;;;;7.77;2.80;;;10.70;99.90;;;;;;5111899;28;20301;-71
2023/12/22 09:30:49;;;;;;;6.23;2.60;;;10.70;99.90;;;;;;5112962;28;20167;-73
2023/12/22 09:33:15;;;;;;;5.60;2.30;;;10.80;99.90;;;;;;5111952;28;20171;-71
2023/12/22 09:35:41;;;;;;;2.83;2.30;;;10.80;99.90;;;;;;5112914;28;20378;-71
2023/12/22 09:38:11;;;;;;;5.43;2.30;;;10.80;99.90;;;;;;5112450;28;20195;-72
2023/12/22 09:40:36;;;;;;;4.17;2.20;;;10.80;99.90;;;;;;5112524;28;20638;-72
2023/12/22 09:43:04;;;;;;;3.67;2.03;;;10.90;99.90;;;;;;5111575;28;20182;-72
2023/12/22 09:45:32;;;;;;;3.83;2.03;;;10.90;99.90;;;;;;5113108;28;20183;-73
2023/12/22 09:47:59;;;;;;;1.93;1.43;;;10.90;99.90;;;;;;5115952;28;20163;-72
2023/12/22 09:50:27;;;;;;;4.10;1.80;;;11.00;99.90;;;;;;5115720;28;20180;-71
2023/12/22 09:52:52;;;;;;;3.17;1.60;;;11.00;99.90;;;;;;5115565;28;20240;-72
2023/12/22 09:55:21;;;;;;;5.80;1.93;;;11.10;99.90;;;;;;5116178;28;20256;-72
2023/12/22 09:57:47;;;;;;;4.97;1.93;;;11.10;99.90;;;;;;5116130;28;20175;-71
2023/12/22 10:00:15;;;;;;;4.73;2.40;;;11.20;99.90;;;;;;5115632;28;20571;-72
2023/12/22 10:02:42;;;;;;;4.13;1.53;;;11.30;99.90;;;;;;5115453;28;20549;-72
2023/12/22 10:05:09;;;;;;;3.40;1.80;;;11.30;99.90;;;;;;5115772;28;20182;-73
2023/12/22 10:07:35;;;;;;;4.17;1.90;;;11.30;99.90;;;;;;5116023;28;20626;-72
2023/12/22 10:10:03;;;;;;;4.17;1.50;;;11.40;99.90;;;;;;5115769;28;20274;-72
2023/12/22 10:12:30;;;;;;;2.30;1.90;;;11.40;99.90;;;;;;5115455;28;20222;-71
2023/12/22 10:14:58;;;;;;;4.03;1.83;;;11.40;99.90;;;;;;5115944;28;20214;-71
2023/12/22 10:17:25;;;;;;;2.30;1.70;;;11.50;99.90;;;;;;5115811;28;20216;-71
2023/12/22 10:19:50;;;;;;;3.10;1.50;;;11.50;99.90;;;;;;5115915;28;20172;-71
2023/12/22 10:22:17;;;;;;;3.67;1.70;;;11.50;99.90;;;;;;5115841;28;20175;-72
2023/12/22 10:24:50;;;;;;;2.80;1.37;;;11.50;99.90;;;;;;5116097;28;20182;-71
2023/12/22 10:27:23;;;;;;;3.57;1.80;;;11.60;99.90;;;;;;5115433;28;20226;-72
2023/12/22 10:29:50;;;;;;;6.23;1.70;;;11.60;99.90;;;;;;5115277;28;20180;-71
2023/12/22 10:32:16;;;;;;;2.87;1.67;;;11.60;99.90;;;;;;5115012;28;20176;-71
2023/12/22 10:34:42;;;;;;;1.97;1.53;;;11.50;99.90;;;;;;5115198;28;20204;-72
2023/12/22 10:37:09;;;;;;;2.50;1.60;;;11.40;99.90;;;;;;5115353;28;20594;-72
2023/12/22 10:39:36;;;;;;;4.87;2.00;;;11.30;99.90;;;;;;5115193;28;20172;-73
2023/12/22 10:42:02;;;;;;;3.03;1.87;;;11.30;99.90;;;;;;5114985;28;20303;-71
2023/12/22 10:44:28;;;;;;;3.67;2.17;;;11.20;99.90;;;;;;5115358;28;20556;-72
2023/12/22 10:46:55;;;;;;;3.63;2.00;;;11.10;99.90;;;;;;5096172;28;20172;-73
2023/12/22 10:49:22;;;;;;;3.53;1.93;;;11.10;99.90;;;;;;5114717;28;20289;-73
2023/12/22 10:51:47;;;;;;;4.30;1.77;;;11.10;99.90;;;;;;5115399;28;20168;-71
2023/12/22 10:54:14;;;;;;;4.80;1.97;;;11.20;99.90;;;;;;5114891;28;20250;-72
2023/12/22 10:56:40;;;;;;;4.70;1.80;;;11.20;99.90;;;;;;5114938;28;20175;-72
2023/12/22 10:59:06;;;;;;;3.70;1.73;;;11.20;99.90;;;;;;5113941;28;20171;-72
2023/12/22 11:01:38;;;;;;;3.77;2.03;;;11.20;99.90;;;;;;5096604;28;20297;-72
2023/12/22 11:04:06;;;;;;;2.10;1.40;;;11.10;99.90;;;;;;5114282;28;20171;-72
2023/12/22 11:06:35;;;;;;;3.80;1.47;;;11.10;99.90;;;;;;5096656;28;20188;-72
2023/12/22 11:09:06;;;;;;;4.03;1.30;;;11.10;99.90;;;;;;5114965;28;20167;-72
2023/12/22 11:11:37;;;;;;;2.47;1.60;;;11.00;99.90;;;;;;5114172;28;20236;-73
2023/12/22 11:14:04;;;;;;;2.27;1.60;;;10.90;99.90;;;;;;5114166;28;20241;-73
2023/12/22 11:16:32;;;;;;;2.00;1.60;;;11.00;99.90;;;;;;5114405;28;20167;-73
2023/12/22 11:18:59;;;;;;;4.80;1.73;;;11.00;99.90;;;;;;5095847;28;20171;-72
2023/12/22 11:21:25;;;;;;;4.10;1.73;;;11.00;99.90;;;;;;5096679;28;20231;-72
2023/12/22 11:23:52;;;;;;;3.43;1.47;;;11.00;99.90;;;;;;5114874;28;20189;-72
2023/12/22 11:26:19;;;;;;;2.63;1.70;;;11.00;99.90;;;;;;5115042;28;20178;-71
2023/12/22 11:28:46;;;;;;;2.50;1.50;;;11.10;99.90;;;;;;5113922;28;20227;-73
2023/12/22 11:31:13;;;;;;;2.47;1.50;;;11.10;99.90;;;;;;5113045;28;20225;-72
2023/12/22 11:33:44;;;;;;;2.33;1.40;;;11.10;99.90;;;;;;5113346;28;20166;-72
2023/12/22 11:36:11;;;;;;;1.70;1.20;;;11.10;99.90;;;;;;5114224;28;20712;-72
2023/12/22 11:38:38;;;;;;;3.30;1.10;;;11.10;99.90;;;;;;5114359;28;20175;-72
2023/12/22 11:41:05;;;;;;;1.70;1.40;;;11.20;99.90;;;;;;5113863;28;20167;-72
2023/12/22 11:43:33;;;;;;;1.00;0.90;;;11.10;99.90;;;;;;5112981;28;20199;-73
2023/12/22 11:46:03;;;;;;;3.20;1.40;;;11.20;99.90;;;;;;5114273;28;20530;-72
2023/12/22 11:48:32;;;;;;;4.20;1.30;;;11.30;99.90;;;;;;5113531;28;20626;-74
2023/12/22 11:50:58;;;;;;;2.40;1.47;;;11.30;99.90;;;;;;5095490;28;20183;-71
2023/12/22 11:53:25;;;;;;;4.53;1.23;;;11.30;99.90;;;;;;5114559;28;20171;-73
2023/12/22 11:56:02;;;;;;;3.77;1.50;;;11.40;99.90;;;;;;5112849;28;20258;-73
2023/12/22 11:58:51;;;;;;;2.00;1.30;;;11.40;99.90;;;;;;5113217;28;20603;-72
2023/12/22 12:01:18;;;;;;;2.30;1.50;;;11.50;99.90;;;;;;5113150;28;20188;-72
2023/12/22 12:04:02;;;;;;;3.23;1.43;;;11.50;99.90;;;;;;5113276;28;20218;-72
2023/12/22 12:06:28;;;;;;;2.30;1.20;;;11.60;99.90;;;;;;5113469;28;20277;-72
2023/12/22 12:08:55;;;;;;;2.13;1.13;;;11.60;99.90;;;;;;5113025;28;20168;-72
2023/12/22 12:11:21;;;;;;;3.20;1.27;;;11.50;99.90;;;;;;5113221;28;20199;-71
2023/12/22 12:13:48;;;;;;;3.93;1.20;;;11.60;99.90;;;;;;5113396;28;20202;-73
2023/12/22 12:16:15;;;;;;;1.83;1.27;;;11.60;99.90;;;;;;5113285;28;20219;-73
2023/12/22 12:18:41;;;;;;;3.97;1.50;;;11.70;99.90;;;;;;5112859;28;20169;-72
2023/12/22 12:21:11;;;;;;;3.40;1.30;;;11.80;99.90;;;;;;5112909;28;20224;-73
2023/12/22 12:23:37;;;;;;;3.17;1.17;;;11.90;99.90;;;;;;5114084;28;20179;-71
2023/12/22 12:26:03;;;;;;;3.27;0.97;;;11.80;99.90;;;;;;5113283;28;20243;-72
2023/12/22 12:28:30;;;;;;;3.63;1.17;;;11.80;99.90;;;;;;5112178;28;20234;-72
2023/12/22 12:31:01;;;;;;;2.27;1.07;;;11.80;99.90;;;;;;5113324;28;20176;-72
2023/12/22 12:33:27;;;;;;;1.87;0.93;;;11.80;99.90;;;;;;5112970;28;20167;-72
2023/12/22 12:35:55;;;;;;;3.40;0.97;;;11.90;99.90;;;;;;5113454;28;20210;-72
2023/12/22 12:39:01;;;;;;;6.37;1.37;;;11.90;99.90;;;;;;5113181;28;20593;-72
2023/12/22 12:41:31;;;;;;;5.83;1.27;;;11.90;99.90;;;;;;5077762;28;20255;-73